Time;durP1;ratioP1;P1;durP2;ratioP2;P2;SDS_P1;SDS_P2;PMS_P1;PMS_P2;Temp;Humidity;BMP_temperature;BMP_pressure;BME280_temperature;BME280_humidity;BME280_pressure;Samples;Min_cycle;Max_cycle;Signal;HPM_P1;HPM_P2
2022/11/30 00:01:57;;;;;;;42.20;26.63;;;8.30;99.90;;;;;;5024115;28;20052;-81
2022/11/30 00:04:23;;;;;;;41.60;25.58;;;8.40;99.90;;;;;;5021061;28;20840;-81
2022/11/30 00:06:48;;;;;;;41.15;24.17;;;7.80;99.90;;;;;;5021621;28;20140;-81
2022/11/30 00:09:14;;;;;;;40.85;24.58;;;7.80;99.90;;;;;;5023618;28;20090;-81
2022/11/30 00:11:40;;;;;;;42.20;25.98;;;7.90;99.90;;;;;;5018390;28;20499;-82
2022/11/30 00:14:05;;;;;;;41.08;23.90;;;7.80;99.90;;;;;;5016483;28;20048;-81
2022/11/30 00:16:31;;;;;;;47.33;27.42;;;7.80;99.90;;;;;;5020711;28;20045;-81
2022/11/30 00:18:57;;;;;;;42.13;25.23;;;7.80;99.90;;;;;;5019005;28;20056;-82
2022/11/30 00:21:22;;;;;;;39.53;24.75;;;7.90;99.90;;;;;;5021738;28;20062;-81
2022/11/30 00:23:48;;;;;;;42.97;26.85;;;8.00;99.90;;;;;;5009665;28;20073;-82
2022/11/30 00:26:16;;;;;;;48.88;29.10;;;7.90;99.90;;;;;;5020938;28;20111;-82
2022/11/30 00:28:44;;;;;;;44.75;24.45;;;7.80;99.90;;;;;;5019213;28;20057;-82
2022/11/30 00:31:13;;;;;;;44.00;24.63;;;7.80;99.90;;;;;;5020852;28;20045;-81
2022/11/30 00:33:39;;;;;;;46.45;25.75;;;7.90;99.90;;;;;;5020864;28;20127;-81
2022/11/30 00:36:13;;;;;;;43.05;25.58;;;7.90;99.90;;;;;;5021575;28;20706;-81
2022/11/30 00:38:39;;;;;;;46.42;24.58;;;7.90;99.90;;;;;;5024492;28;20478;-81
2022/11/30 00:41:05;;;;;;;46.38;27.05;;;8.00;99.90;;;;;;5020140;28;20052;-81
2022/11/30 00:43:30;;;;;;;46.38;27.23;;;7.90;99.90;;;;;;5020188;28;20053;-81
2022/11/30 00:45:57;;;;;;;45.40;23.77;;;8.00;99.90;;;;;;5017880;28;20095;-81
2022/11/30 00:48:23;;;;;;;41.28;23.77;;;8.00;99.90;;;;;;5018582;28;20054;-81
2022/11/30 00:50:49;;;;;;;44.47;24.63;;;8.00;99.90;;;;;;5015913;28;20053;-81
2022/11/30 00:53:16;;;;;;;41.30;26.30;;;8.00;99.90;;;;;;5019948;28;20045;-81
2022/11/30 00:55:43;;;;;;;43.22;26.00;;;8.00;99.90;;;;;;5023093;28;20114;-81
2022/11/30 00:58:09;;;;;;;40.80;25.98;;;7.90;99.90;;;;;;5018053;28;20045;-81
2022/11/30 01:00:34;;;;;;;38.60;23.95;;;7.90;99.90;;;;;;5031815;28;20387;-80
2022/11/30 01:03:01;;;;;;;43.08;25.20;;;7.90;99.90;;;;;;5027839;28;20091;-81
2022/11/30 01:05:27;;;;;;;36.95;24.67;;;7.80;99.90;;;;;;5013147;28;20121;-81
2022/11/30 01:07:53;;;;;;;42.45;24.83;;;7.90;99.90;;;;;;5021338;28;20045;-81
2022/11/30 01:10:19;;;;;;;38.40;22.80;;;7.80;99.90;;;;;;5018773;28;20056;-81
2022/11/30 01:12:44;;;;;;;41.53;24.48;;;7.90;99.90;;;;;;5018291;28;20057;-81
2022/11/30 01:15:10;;;;;;;33.72;21.67;;;7.90;99.90;;;;;;5016965;28;20061;-81
2022/11/30 01:17:36;;;;;;;33.10;21.88;;;7.90;99.90;;;;;;5017599;28;20050;-81
2022/11/30 01:20:04;;;;;;;40.95;22.85;;;8.00;99.90;;;;;;5018338;28;20147;-81
2022/11/30 01:22:29;;;;;;;39.00;22.95;;;8.00;99.90;;;;;;5019284;28;20048;-81
2022/11/30 01:24:55;;;;;;;37.05;22.75;;;8.10;99.90;;;;;;5020902;28;20073;-80
2022/11/30 01:27:20;;;;;;;35.17;21.35;;;8.00;99.90;;;;;;5018249;28;20088;-81
2022/11/30 01:29:46;;;;;;;40.47;23.63;;;7.90;99.90;;;;;;5016657;28;20053;-81
2022/11/30 01:32:12;;;;;;;30.33;22.05;;;8.00;99.90;;;;;;5019933;28;20136;-81
2022/11/30 01:34:37;;;;;;;37.58;23.00;;;7.90;99.90;;;;;;5018198;28;20071;-81
2022/11/30 01:37:03;;;;;;;35.85;23.40;;;7.90;99.90;;;;;;5018639;28;20103;-81
2022/11/30 01:39:29;;;;;;;30.75;21.17;;;8.00;99.90;;;;;;5019930;28;20062;-81
2022/11/30 01:41:54;;;;;;;33.95;21.58;;;8.00;99.90;;;;;;5017930;28;20045;-81
2022/11/30 01:44:25;;;;;;;30.90;20.50;;;8.00;99.90;;;;;;5020686;28;20048;-81
2022/11/30 01:47:02;;;;;;;37.22;22.45;;;8.00;99.90;;;;;;5020005;28;20102;-81
2022/11/30 01:49:44;;;;;;;35.42;21.95;;;8.00;99.90;;;;;;5007765;28;20667;-81
2022/11/30 01:52:21;;;;;;;33.75;20.35;;;8.00;99.90;;;;;;5023301;28;20081;-82
2022/11/30 01:54:53;;;;;;;33.13;20.75;;;8.00;99.90;;;;;;5017501;28;20052;-81
2022/11/30 01:57:28;;;;;;;29.00;20.88;;;8.00;99.90;;;;;;5021420;28;20475;-81
2022/11/30 01:59:58;;;;;;;31.80;21.65;;;8.00;99.90;;;;;;5015596;28;20060;-81
2022/11/30 02:02:39;;;;;;;32.05;21.33;;;8.10;99.90;;;;;;5024200;28;20045;-82
2022/11/30 02:05:05;;;;;;;34.85;24.00;;;8.00;99.90;;;;;;5018110;28;20486;-81
2022/11/30 02:07:31;;;;;;;30.73;20.55;;;8.00;99.90;;;;;;5017640;28;20342;-81
2022/11/30 02:09:57;;;;;;;33.30;22.13;;;8.00;99.90;;;;;;5022409;28;20776;-82
2022/11/30 02:12:33;;;;;;;31.15;19.98;;;7.90;99.90;;;;;;5019180;28;20057;-81
2022/11/30 02:15:10;;;;;;;33.40;22.02;;;8.50;99.90;;;;;;5017361;28;20046;-81
2022/11/30 02:17:54;;;;;;;28.83;19.13;;;8.00;99.90;;;;;;5019920;28;20053;-83
2022/11/30 02:20:26;;;;;;;26.15;19.00;;;8.00;99.90;;;;;;5016083;28;20084;-81
2022/11/30 02:23:15;;;;;;;30.45;20.30;;;8.00;99.90;;;;;;5006782;28;20139;-82
2022/11/30 02:26:15;;;;;;;31.20;20.73;;;7.90;99.90;;;;;;5016916;28;20053;-82
2022/11/30 02:28:46;;;;;;;30.42;20.45;;;7.80;99.90;;;;;;5016772;28;20045;-81
2022/11/30 02:31:18;;;;;;;28.88;20.63;;;7.80;99.90;;;;;;5016597;28;20077;-81
2022/11/30 02:33:46;;;;;;;30.17;20.88;;;7.90;99.90;;;;;;5014763;28;20088;-80
2022/11/30 02:36:12;;;;;;;31.33;19.88;;;7.90;99.90;;;;;;5018094;28;20579;-80
2022/11/30 02:38:39;;;;;;;30.38;22.17;;;7.80;99.90;;;;;;5015407;28;20061;-81
2022/11/30 02:41:04;;;;;;;32.03;21.80;;;7.80;99.90;;;;;;5019837;28;20132;-81
2022/11/30 02:43:31;;;;;;;27.67;20.05;;;7.80;99.90;;;;;;5021386;28;20049;-81
2022/11/30 02:46:03;;;;;;;28.95;19.63;;;7.80;99.90;;;;;;5010122;28;20632;-81
2022/11/30 02:48:56;;;;;;;31.02;20.45;;;7.80;99.90;;;;;;5010881;28;20048;-81
2022/11/30 02:51:25;;;;;;;29.58;21.23;;;7.80;99.90;;;;;;5015269;28;20186;-82
2022/11/30 02:53:51;;;;;;;32.78;21.98;;;7.90;99.90;;;;;;5018529;28;20156;-81
2022/11/30 02:56:18;;;;;;;37.20;23.02;;;7.80;99.90;;;;;;5015099;28;20065;-81
2022/11/30 02:58:44;;;;;;;33.97;21.48;;;8.20;99.90;;;;;;5013307;28;20832;-81
2022/11/30 03:01:10;;;;;;;32.33;21.20;;;7.70;99.90;;;;;;5023665;28;20057;-81
2022/11/30 03:03:35;;;;;;;32.17;20.95;;;7.70;99.90;;;;;;5016979;28;20049;-81
2022/11/30 03:06:01;;;;;;;32.20;21.55;;;8.70;99.90;;;;;;5016730;28;20102;-81
2022/11/30 03:08:27;;;;;;;33.67;22.95;;;7.80;99.90;;;;;;5014987;28;20156;-81
2022/11/30 03:10:52;;;;;;;33.35;23.50;;;7.80;99.90;;;;;;5012565;28;20087;-81
2022/11/30 03:13:18;;;;;;;36.65;23.17;;;7.70;99.90;;;;;;5013078;28;20045;-80
2022/11/30 03:15:44;;;;;;;36.15;23.20;;;7.60;99.90;;;;;;5014767;28;20048;-81
2022/11/30 03:18:09;;;;;;;34.97;23.40;;;7.60;99.90;;;;;;5014872;28;20486;-80
2022/11/30 03:20:40;;;;;;;33.58;23.40;;;7.60;99.90;;;;;;5011197;28;20053;-81
2022/11/30 03:23:06;;;;;;;38.15;23.42;;;7.60;99.90;;;;;;5026314;28;20045;-82
2022/11/30 03:25:32;;;;;;;34.35;22.65;;;7.60;99.90;;;;;;5013081;28;20527;-81
2022/11/30 03:28:00;;;;;;;32.95;20.85;;;7.60;99.90;;;;;;4998427;28;20049;-81
2022/11/30 03:30:26;;;;;;;35.53;22.45;;;7.60;99.90;;;;;;5022992;28;20057;-81
2022/11/30 03:32:52;;;;;;;40.58;23.45;;;7.60;99.90;;;;;;5015963;28;20045;-81
2022/11/30 03:35:17;;;;;;;40.35;24.15;;;7.60;99.90;;;;;;5018181;28;20810;-81
2022/11/30 03:37:44;;;;;;;36.58;23.23;;;7.60;99.90;;;;;;5016566;28;20049;-81
2022/11/30 03:40:10;;;;;;;35.00;22.83;;;8.20;99.90;;;;;;5016828;28;20053;-80
2022/11/30 03:42:36;;;;;;;37.75;24.13;;;7.60;99.90;;;;;;5019976;28;20231;-82
2022/11/30 03:45:02;;;;;;;40.45;24.48;;;7.50;99.90;;;;;;5014828;28;20486;-81
2022/11/30 03:47:28;;;;;;;34.55;23.17;;;7.50;99.90;;;;;;5015355;28;20065;-81
2022/11/30 03:49:53;;;;;;;33.63;22.63;;;7.60;99.90;;;;;;5014411;28;20136;-81
2022/11/30 03:52:19;;;;;;;35.85;22.17;;;7.40;99.90;;;;;;5014541;28;20077;-81
2022/11/30 03:54:45;;;;;;;41.00;22.80;;;7.50;99.90;;;;;;5015329;28;20580;-83
2022/11/30 03:57:10;;;;;;;35.63;22.88;;;7.50;99.90;;;;;;5007504;28;20049;-82
2022/11/30 03:59:36;;;;;;;36.28;24.83;;;7.40;99.90;;;;;;5019462;28;20053;-83
2022/11/30 04:02:02;;;;;;;37.53;25.17;;;7.40;99.90;;;;;;5021858;28;20155;-83
2022/11/30 04:04:27;;;;;;;36.75;23.45;;;7.40;99.90;;;;;;5016341;28;20080;-81
2022/11/30 04:06:53;;;;;;;38.88;23.05;;;7.40;99.90;;;;;;5023060;28;20064;-82
2022/11/30 04:09:19;;;;;;;39.13;24.60;;;7.40;99.90;;;;;;5019615;28;20067;-81
2022/11/30 04:11:44;;;;;;;35.42;22.60;;;7.40;99.90;;;;;;5023226;28;20106;-81
2022/11/30 04:14:10;;;;;;;41.63;23.13;;;7.50;99.90;;;;;;5021646;28;20076;-83
2022/11/30 04:16:36;;;;;;;33.78;22.83;;;7.40;99.90;;;;;;5020509;28;20091;-81
2022/11/30 04:19:02;;;;;;;39.90;24.05;;;7.50;99.90;;;;;;5021038;28;20120;-81
2022/11/30 04:21:27;;;;;;;42.72;24.88;;;7.40;99.90;;;;;;5019191;28;20092;-82
2022/11/30 04:23:53;;;;;;;39.50;24.63;;;7.40;99.90;;;;;;5018513;28;20141;-81
2022/11/30 04:26:20;;;;;;;42.33;26.30;;;7.80;99.90;;;;;;5014707;28;20041;-81
2022/11/30 04:28:45;;;;;;;35.83;23.92;;;8.00;99.90;;;;;;5026823;28;20126;-81
2022/11/30 04:31:11;;;;;;;39.78;25.55;;;7.40;99.90;;;;;;5021829;28;20132;-82
2022/11/30 04:33:37;;;;;;;41.38;26.02;;;7.40;99.90;;;;;;5022683;28;20053;-82
2022/11/30 04:36:05;;;;;;;45.83;26.95;;;7.40;99.90;;;;;;5021436;28;20710;-82
2022/11/30 04:38:32;;;;;;;42.70;24.23;;;7.30;99.90;;;;;;5026285;28;20045;-82
2022/11/30 04:40:58;;;;;;;42.38;26.25;;;7.30;99.90;;;;;;5017172;28;20073;-81
2022/11/30 04:43:24;;;;;;;45.13;27.25;;;7.60;99.90;;;;;;5013298;28;20156;-82
2022/11/30 04:45:50;;;;;;;40.45;25.73;;;7.30;99.90;;;;;;5027043;28;20385;-80
2022/11/30 04:48:17;;;;;;;46.65;26.77;;;7.30;99.90;;;;;;5020429;28;20051;-81
2022/11/30 04:50:43;;;;;;;49.25;28.33;;;7.20;99.90;;;;;;5017777;28;20115;-81
2022/11/30 04:53:09;;;;;;;47.17;27.85;;;7.20;99.90;;;;;;5017044;28;21203;-81
2022/11/30 04:55:37;;;;;;;44.90;26.58;;;7.20;99.90;;;;;;5018943;28;20075;-81
2022/11/30 04:58:03;;;;;;;47.08;27.40;;;7.20;99.90;;;;;;5018477;28;20065;-82
2022/11/30 05:00:29;;;;;;;46.25;28.15;;;7.20;99.90;;;;;;5016550;28;20509;-86
2022/11/30 05:02:55;;;;;;;47.90;26.98;;;7.20;99.90;;;;;;5020865;28;20053;-81
2022/11/30 05:05:21;;;;;;;53.17;29.63;;;7.20;99.90;;;;;;5021454;28;20107;-82
2022/11/30 05:07:55;;;;;;;48.80;29.10;;;7.20;99.90;;;;;;5019392;28;20049;-81
2022/11/30 05:10:20;;;;;;;50.40;26.92;;;7.20;99.90;;;;;;5018774;28;20162;-81
2022/11/30 05:12:46;;;;;;;52.03;28.13;;;8.20;99.90;;;;;;5015652;28;20164;-80
2022/11/30 05:15:12;;;;;;;55.92;30.25;;;7.20;99.90;;;;;;5021679;28;20057;-81
2022/11/30 05:17:38;;;;;;;45.08;28.58;;;7.20;99.90;;;;;;5016833;28;20678;-82
2022/11/30 05:20:04;;;;;;;50.85;30.35;;;7.10;99.90;;;;;;5016093;28;20065;-81
2022/11/30 05:22:30;;;;;;;49.80;29.27;;;7.10;99.90;;;;;;5021745;28;20053;-81
2022/11/30 05:24:56;;;;;;;47.65;30.52;;;7.10;99.90;;;;;;5022295;28;20083;-80
2022/11/30 05:27:21;;;;;;;50.28;29.20;;;7.10;99.90;;;;;;5019558;28;20091;-83
2022/11/30 05:29:47;;;;;;;55.25;31.00;;;7.00;99.90;;;;;;5016517;28;20054;-81
2022/11/30 05:32:12;;;;;;;44.00;26.15;;;7.10;99.90;;;;;;5022965;28;20049;-81
2022/11/30 05:34:38;;;;;;;44.90;25.25;;;7.10;99.90;;;;;;5016972;28;20121;-80
2022/11/30 05:37:04;;;;;;;50.05;26.92;;;7.20;99.90;;;;;;5015290;28;20592;-80
2022/11/30 05:39:29;;;;;;;41.58;25.85;;;7.20;99.90;;;;;;5014409;28;20508;-81
2022/11/30 05:41:55;;;;;;;45.20;28.88;;;7.20;99.90;;;;;;5019714;28;20051;-83
2022/11/30 05:44:21;;;;;;;47.40;26.30;;;7.50;99.90;;;;;;5025145;28;20041;-81
2022/11/30 05:46:46;;;;;;;44.88;26.35;;;7.30;99.90;;;;;;5026868;28;20045;-80
2022/11/30 05:49:12;;;;;;;39.35;26.20;;;7.50;99.90;;;;;;5028927;28;20064;-82
2022/11/30 05:51:40;;;;;;;40.72;27.55;;;7.20;99.90;;;;;;5029474;28;20669;-81
2022/11/30 05:54:05;;;;;;;50.53;30.38;;;7.70;99.90;;;;;;5022933;28;20425;-80
2022/11/30 05:56:31;;;;;;;45.83;27.92;;;7.30;99.90;;;;;;5027299;28;20822;-81
2022/11/30 05:58:57;;;;;;;46.78;26.90;;;7.20;99.90;;;;;;5021316;28;20072;-81
2022/11/30 06:01:25;;;;;;;51.22;29.05;;;7.30;99.90;;;;;;5023423;28;20046;-81
2022/11/30 06:03:51;;;;;;;54.83;27.98;;;7.30;99.90;;;;;;5018481;28;20573;-80
2022/11/30 06:06:17;;;;;;;49.70;28.15;;;7.20;99.90;;;;;;5020773;28;20803;-81
2022/11/30 06:08:43;;;;;;;43.05;25.60;;;7.20;99.90;;;;;;5018647;28;20049;-80
2022/11/30 06:11:09;;;;;;;41.05;24.20;;;7.50;99.90;;;;;;5012030;28;20087;-81
2022/11/30 06:13:35;;;;;;;39.33;24.15;;;7.20;99.90;;;;;;5016949;28;20132;-81
2022/11/30 06:16:01;;;;;;;37.13;23.85;;;7.20;99.90;;;;;;5020663;28;20148;-81
2022/11/30 06:18:28;;;;;;;42.63;23.40;;;7.80;99.90;;;;;;5023189;28;20148;-81
2022/11/30 06:20:53;;;;;;;34.28;21.75;;;7.10;99.90;;;;;;5021295;28;20049;-80
2022/11/30 06:23:19;;;;;;;35.80;20.50;;;7.20;99.90;;;;;;5023173;28;20061;-80
2022/11/30 06:25:45;;;;;;;32.70;20.70;;;7.10;99.90;;;;;;5017483;28;20750;-80
2022/11/30 06:28:12;;;;;;;31.67;20.88;;;7.20;99.90;;;;;;5013328;28;20651;-81
2022/11/30 06:30:38;;;;;;;34.35;20.38;;;7.10;99.90;;;;;;5007883;28;20085;-80
2022/11/30 06:33:04;;;;;;;26.60;18.55;;;7.10;99.90;;;;;;5014895;28;20124;-80
2022/11/30 06:35:31;;;;;;;29.88;19.42;;;7.20;99.90;;;;;;5023503;28;20048;-81
2022/11/30 06:37:59;;;;;;;29.48;19.50;;;7.10;99.90;;;;;;5014382;28;20793;-81
2022/11/30 06:40:26;;;;;;;32.28;17.98;;;7.10;99.90;;;;;;5023029;28;20791;-80
2022/11/30 06:42:52;;;;;;;28.88;19.02;;;7.20;99.90;;;;;;5016095;28;20045;-81
2022/11/30 06:45:17;;;;;;;32.63;20.00;;;7.10;99.90;;;;;;4979697;28;20654;-80
2022/11/30 06:47:43;;;;;;;29.48;18.40;;;7.10;99.90;;;;;;5015128;28;20654;-81
2022/11/30 06:50:10;;;;;;;36.17;21.23;;;7.50;99.90;;;;;;5017456;28;20611;-80
2022/11/30 06:52:35;;;;;;;32.10;20.00;;;7.20;99.90;;;;;;5018912;28;20050;-81
2022/11/30 06:55:01;;;;;;;23.92;17.33;;;7.10;99.90;;;;;;5011732;28;20860;-81
2022/11/30 06:57:27;;;;;;;30.90;18.35;;;7.20;99.90;;;;;;5017666;28;20842;-80
2022/11/30 06:59:53;;;;;;;27.70;17.35;;;7.20;99.90;;;;;;5008289;28;20060;-81
2022/11/30 07:02:19;;;;;;;32.80;20.77;;;7.20;99.90;;;;;;5004706;28;20072;-81
2022/11/30 07:04:44;;;;;;;26.58;17.88;;;6.30;99.90;;;;;;5020863;28;20736;-81
2022/11/30 07:07:10;;;;;;;28.08;18.45;;;7.10;99.90;;;;;;5016354;28;20498;-80
2022/11/30 07:09:36;;;;;;;25.73;16.85;;;7.10;99.90;;;;;;5021774;28;20045;-80
2022/11/30 07:12:03;;;;;;;23.42;16.55;;;7.80;99.90;;;;;;5022795;28;20048;-81
2022/11/30 07:14:29;;;;;;;27.70;17.10;;;7.10;99.90;;;;;;5017517;28;20049;-81
2022/11/30 07:16:55;;;;;;;24.65;16.45;;;7.10;99.90;;;;;;5010277;28;20046;-81
2022/11/30 07:19:21;;;;;;;24.58;16.15;;;7.10;99.90;;;;;;5016819;28;20063;-81
2022/11/30 07:21:47;;;;;;;23.73;16.60;;;7.10;99.90;;;;;;5001352;28;20116;-78
2022/11/30 07:27:01;;;;;;;22.02;15.00;;;7.10;99.90;;;;;;5014731;28;20064;-81
2022/11/30 07:29:27;;;;;;;22.88;15.77;;;7.00;99.90;;;;;;5024036;28;20053;-81
2022/11/30 07:31:53;;;;;;;21.25;14.85;;;7.60;99.90;;;;;;5012147;28;20060;-80
2022/11/30 07:34:20;;;;;;;19.38;15.15;;;7.10;99.90;;;;;;5029558;28;20538;-84
2022/11/30 07:36:46;;;;;;;18.88;13.45;;;7.00;99.90;;;;;;5019683;28;20056;-82
2022/11/30 07:39:12;;;;;;;15.50;12.02;;;7.00;99.90;;;;;;5015987;28;20049;-82
2022/11/30 07:41:39;;;;;;;20.27;13.95;;;7.10;99.90;;;;;;5024513;28;20041;-79
2022/11/30 07:44:05;;;;;;;18.50;14.13;;;7.10;99.90;;;;;;5025976;28;20053;-82
2022/11/30 07:46:34;;;;;;;16.33;11.10;;;7.10;99.90;;;;;;5020779;28;20548;-82
2022/11/30 07:49:04;;;;;;;15.77;13.45;;;7.20;99.90;;;;;;5020541;28;20057;-82
2022/11/30 07:51:30;;;;;;;17.40;13.07;;;7.20;99.90;;;;;;5035558;28;20061;-81
2022/11/30 07:53:57;;;;;;;15.32;13.57;;;7.20;99.90;;;;;;5016501;28;20042;-81
2022/11/30 07:56:23;;;;;;;14.95;12.98;;;7.20;99.90;;;;;;5026807;28;20124;-82
2022/11/30 07:58:52;;;;;;;16.33;12.40;;;7.20;99.90;;;;;;5018842;28;20057;-80
2022/11/30 08:01:22;;;;;;;17.13;13.07;;;7.60;99.90;;;;;;5015731;28;20124;-71
2022/11/30 08:03:49;;;;;;;19.65;13.88;;;7.20;99.90;;;;;;5020398;28;20083;-80
2022/11/30 08:06:33;;;;;;;17.83;13.90;;;7.20;99.90;;;;;;5034640;28;20033;-79
2022/11/30 08:09:02;;;;;;;15.77;12.70;;;7.10;99.90;;;;;;5032235;28;20071;-81
2022/11/30 08:11:31;;;;;;;17.00;13.18;;;7.10;99.90;;;;;;5014073;28;20663;-81
2022/11/30 08:13:57;;;;;;;16.27;13.13;;;7.10;99.90;;;;;;5030804;28;20144;-82
2022/11/30 08:16:25;;;;;;;18.88;13.90;;;7.10;99.90;;;;;;5019993;28;20079;-82
2022/11/30 08:18:52;;;;;;;20.27;15.57;;;7.10;99.90;;;;;;5014156;28;20156;-83
2022/11/30 08:21:21;;;;;;;21.10;14.77;;;7.10;99.90;;;;;;5015030;28;20065;-82
2022/11/30 08:23:49;;;;;;;19.80;14.10;;;7.10;99.90;;;;;;5015013;28;20056;-82
2022/11/30 08:26:35;;;;;;;19.92;14.57;;;7.10;99.90;;;;;;5015753;28;20045;-81
2022/11/30 08:29:01;;;;;;;20.50;14.93;;;7.10;99.90;;;;;;5025467;28;20060;-78
2022/11/30 08:31:35;;;;;;;20.08;14.98;;;7.10;99.90;;;;;;5017283;28;20053;-86
2022/11/30 08:34:11;;;;;;;20.80;14.38;;;7.10;99.90;;;;;;5014945;28;20054;-81
2022/11/30 08:36:38;;;;;;;18.80;14.85;;;7.10;99.90;;;;;;5013326;28;20817;-82
2022/11/30 08:39:05;;;;;;;21.02;14.85;;;7.10;99.90;;;;;;5015841;28;20053;-82
2022/11/30 08:41:31;;;;;;;23.23;15.70;;;7.10;99.90;;;;;;5012309;28;20060;-80
2022/11/30 08:43:57;;;;;;;20.77;14.23;;;7.10;99.90;;;;;;5017167;28;20191;-79
2022/11/30 08:46:24;;;;;;;19.13;14.65;;;7.10;99.90;;;;;;5018070;28;20058;-81
2022/11/30 08:48:50;;;;;;;18.77;14.20;;;7.10;99.90;;;;;;5018982;28;20484;-81
2022/11/30 08:51:18;;;;;;;17.63;14.50;;;7.10;99.90;;;;;;5005154;28;20057;-81
2022/11/30 08:53:44;;;;;;;18.52;13.73;;;7.10;99.90;;;;;;5020768;28;20475;-82
2022/11/30 08:56:17;;;;;;;18.40;14.35;;;7.20;99.90;;;;;;5029546;28;20045;-83
2022/11/30 08:58:43;;;;;;;19.47;14.40;;;7.20;99.90;;;;;;5025195;28;20095;-86
2022/11/30 09:01:22;;;;;;;19.52;13.45;;;7.20;99.90;;;;;;5020504;28;20303;-86
2022/11/30 09:03:51;;;;;;;16.67;12.75;;;7.10;99.90;;;;;;5025043;28;20127;-81
2022/11/30 09:06:26;;;;;;;20.52;15.43;;;7.10;99.90;;;;;;5022153;28;20080;-82
2022/11/30 09:08:54;;;;;;;18.83;14.57;;;7.10;99.90;;;;;;5019200;28;20053;-81
2022/11/30 09:11:29;;;;;;;18.25;14.43;;;7.10;99.90;;;;;;5019872;28;20049;-80
2022/11/30 09:13:57;;;;;;;19.52;14.25;;;7.10;99.90;;;;;;5022145;28;20096;-81
2022/11/30 09:16:24;;;;;;;21.08;15.73;;;7.20;99.90;;;;;;5019543;28;20042;-80
2022/11/30 09:18:51;;;;;;;24.67;14.85;;;7.30;99.90;;;;;;5018331;28;20041;-81
2022/11/30 09:21:20;;;;;;;22.58;16.27;;;7.20;99.90;;;;;;5019344;28;20061;-82
2022/11/30 09:23:46;;;;;;;19.83;15.65;;;7.20;99.90;;;;;;5008849;28;20053;-82
2022/11/30 09:26:16;;;;;;;22.00;15.07;;;7.30;99.90;;;;;;5019206;28;20149;-82
2022/11/30 09:28:42;;;;;;;26.65;16.65;;;7.30;99.90;;;;;;5019437;28;20063;-82
2022/11/30 09:31:12;;;;;;;23.90;16.67;;;7.80;99.90;;;;;;5020194;28;20486;-80
2022/11/30 09:33:38;;;;;;;20.00;15.45;;;7.90;99.90;;;;;;5016293;28;20050;-81
2022/11/30 09:36:07;;;;;;;22.02;15.35;;;7.30;99.90;;;;;;5020256;28;20041;-81
2022/11/30 09:38:33;;;;;;;23.70;16.90;;;7.40;99.90;;;;;;5020114;28;20045;-81
2022/11/30 09:41:26;;;;;;;23.30;16.20;;;7.40;99.90;;;;;;5025333;28;20069;-81
2022/11/30 09:44:19;;;;;;;19.10;14.02;;;7.40;99.90;;;;;;4994958;28;20064;-82
2022/11/30 09:46:44;;;;;;;22.20;15.68;;;7.40;99.90;;;;;;5021022;28;20958;-82
2022/11/30 09:49:19;;;;;;;22.67;14.48;;;8.10;99.90;;;;;;5019325;28;20049;-82
2022/11/30 09:51:46;;;;;;;24.33;16.58;;;7.50;99.90;;;;;;5016725;28;20057;-83
2022/11/30 09:54:34;;;;;;;23.60;16.85;;;7.50;99.90;;;;;;5010490;28;20084;-82
2022/11/30 09:57:19;;;;;;;24.98;17.30;;;7.50;99.90;;;;;;5017190;28;20037;-82
2022/11/30 09:59:57;;;;;;;25.73;17.48;;;7.50;99.90;;;;;;5018060;28;20457;-82
2022/11/30 10:02:28;;;;;;;24.33;17.73;;;7.40;99.90;;;;;;5019749;28;20125;-83
2022/11/30 10:04:55;;;;;;;23.38;17.55;;;7.80;99.90;;;;;;5015947;28;20685;-82
2022/11/30 10:07:57;;;;;;;22.92;17.27;;;7.40;99.90;;;;;;5009850;28;20565;-83
2022/11/30 10:11:00;;;;;;;26.98;18.15;;;7.50;99.90;;;;;;5017809;28;20068;-83
2022/11/30 10:13:51;;;;;;;24.52;17.35;;;7.50;99.90;;;;;;5027047;28;20045;-81
2022/11/30 10:16:22;;;;;;;24.27;17.00;;;7.50;99.90;;;;;;5018819;28;20398;-82
2022/11/30 10:19:17;;;;;;;24.08;16.55;;;7.50;99.90;;;;;;5023327;28;20513;-82
2022/11/30 10:22:21;;;;;;;27.20;17.17;;;7.50;99.90;;;;;;5005827;28;20145;-81
2022/11/30 10:24:59;;;;;;;;;;;7.50;99.90;;;;;;5015521;28;20049;-81
2022/11/30 10:27:52;;;;;;;25.08;16.63;;;7.40;99.90;;;;;;5006058;28;19963;-81
2022/11/30 10:30:31;;;;;;;26.55;18.48;;;7.50;99.90;;;;;;5018164;28;20057;-82
2022/11/30 10:33:04;;;;;;;25.50;17.52;;;7.50;99.90;;;;;;5024479;28;20045;-82
2022/11/30 10:35:51;;;;;;;19.80;15.25;;;7.50;99.90;;;;;;5009857;28;20045;-81
2022/11/30 10:38:32;;;;;;;25.73;17.45;;;7.50;99.90;;;;;;5013432;28;20053;-82
2022/11/30 10:41:08;;;;;;;22.52;16.05;;;7.50;99.90;;;;;;5022794;28;20041;-81
2022/11/30 10:43:53;;;;;;;24.27;16.98;;;7.60;99.90;;;;;;5017367;28;20136;-81
2022/11/30 10:46:32;;;;;;;23.40;15.75;;;7.50;99.90;;;;;;5012973;28;20092;-82
2022/11/30 10:49:14;;;;;;;25.70;17.45;;;7.50;99.90;;;;;;5011779;28;20045;-81
2022/11/30 10:51:43;;;;;;;23.98;17.52;;;7.60;99.90;;;;;;5018732;28;20403;-81
2022/11/30 10:54:21;;;;;;;24.17;15.93;;;7.60;99.90;;;;;;5013686;28;20099;-80
2022/11/30 10:56:47;;;;;;;22.30;16.30;;;7.60;99.90;;;;;;5025002;28;20052;-81
2022/11/30 10:59:23;;;;;;;26.83;17.08;;;7.60;99.90;;;;;;5017420;28;20053;-84
2022/11/30 11:01:50;;;;;;;23.88;17.98;;;7.60;99.90;;;;;;5015427;28;20043;-82
2022/11/30 11:04:21;;;;;;;23.65;16.00;;;7.60;99.90;;;;;;5016767;28;20049;-82
2022/11/30 11:06:54;;;;;;;24.98;16.95;;;7.60;99.90;;;;;;5024567;28;20461;-82
2022/11/30 11:09:28;;;;;;;21.85;15.88;;;7.60;99.90;;;;;;5019172;28;20185;-82
2022/11/30 11:11:57;;;;;;;24.55;15.98;;;7.70;99.90;;;;;;5032956;28;20049;-82
2022/11/30 11:14:25;;;;;;;17.95;14.50;;;7.60;99.90;;;;;;5024877;28;20053;-82
2022/11/30 11:17:01;;;;;;;24.08;15.85;;;7.50;99.90;;;;;;5013367;28;20093;-82
2022/11/30 11:19:40;;;;;;;23.98;16.73;;;7.50;99.90;;;;;;5017547;28;20084;-82
2022/11/30 11:22:15;;;;;;;23.40;16.65;;;7.50;99.90;;;;;;5015305;28;20095;-80
2022/11/30 11:24:41;;;;;;;25.08;16.25;;;7.40;99.90;;;;;;5028316;28;20045;-82
2022/11/30 11:27:26;;;;;;;24.40;17.65;;;7.40;99.90;;;;;;5016762;28;20492;-81
2022/11/30 11:30:26;;;;;;;24.05;16.25;;;7.40;99.90;;;;;;5017033;28;20083;-81
2022/11/30 11:33:10;;;;;;;25.83;17.27;;;7.50;99.90;;;;;;5012471;28;20052;-81
2022/11/30 11:35:42;;;;;;;24.48;15.55;;;7.50;99.90;;;;;;5025615;28;20176;-82
2022/11/30 11:38:23;;;;;;;24.65;17.75;;;7.50;99.90;;;;;;5024853;28;20041;-80
2022/11/30 11:41:19;;;;;;;22.90;15.77;;;7.50;99.90;;;;;;5009822;28;20084;-80
2022/11/30 11:44:08;;;;;;;31.45;20.40;;;7.50;99.90;;;;;;5017173;28;20053;-82
2022/11/30 11:46:54;;;;;;;26.98;17.77;;;7.50;99.90;;;;;;5010846;28;20072;-82
2022/11/30 11:49:24;;;;;;;29.55;19.08;;;7.50;99.90;;;;;;5016428;28;20478;-81
2022/11/30 11:52:14;;;;;;;25.20;17.67;;;7.60;99.90;;;;;;5018413;28;20049;-83
2022/11/30 11:55:17;;;;;;;24.90;16.88;;;7.50;99.90;;;;;;5017339;28;20162;-81
2022/11/30 11:57:56;;;;;;;25.98;19.30;;;7.60;99.90;;;;;;4913762;28;20071;-82
2022/11/30 12:00:24;;;;;;;28.83;19.98;;;7.50;99.90;;;;;;5003213;28;20763;-83
2022/11/30 12:02:58;;;;;;;31.83;21.70;;;7.50;99.90;;;;;;5013571;28;20352;-81
2022/11/30 12:05:41;;;;;;;29.48;20.05;;;7.50;99.90;;;;;;5005572;28;21242;-80
2022/11/30 12:08:32;;;;;;;32.35;21.80;;;7.50;99.90;;;;;;5009357;28;20047;-81
2022/11/30 12:11:08;;;;;;;31.92;20.10;;;7.50;99.90;;;;;;5018718;28;20041;-81
2022/11/30 12:13:39;;;;;;;29.88;20.10;;;7.50;99.90;;;;;;5017560;28;20054;-82
2022/11/30 12:16:10;;;;;;;31.13;21.77;;;7.50;99.90;;;;;;5016921;28;20072;-82
2022/11/30 12:18:44;;;;;;;34.80;21.33;;;7.40;99.90;;;;;;5013854;28;20168;-83
2022/11/30 12:21:21;;;;;;;31.67;21.50;;;7.90;99.90;;;;;;5023857;28;20172;-81
2022/11/30 12:24:37;;;;;;;30.00;20.13;;;7.60;99.90;;;;;;5015116;28;20081;-80
2022/11/30 12:27:42;;;;;;;33.72;21.50;;;7.50;99.90;;;;;;4948193;28;20046;-79
2022/11/30 12:30:14;;;;;;;29.67;20.02;;;7.40;99.90;;;;;;5013600;28;20088;-82
2022/11/30 12:32:48;;;;;;;34.17;23.00;;;7.50;99.90;;;;;;5021922;28;20053;-80
2022/11/30 12:35:23;;;;;;;35.67;23.02;;;7.40;99.90;;;;;;5020178;28;20411;-81
2022/11/30 12:38:17;;;;;;;41.95;25.10;;;7.50;99.90;;;;;;5018033;28;20149;-81
2022/11/30 12:41:16;;;;;;;39.55;24.45;;;7.60;99.90;;;;;;5018514;28;20048;-81
2022/11/30 12:44:13;;;;;;;34.33;23.33;;;7.60;99.90;;;;;;4981766;28;20123;-83
2022/11/30 12:47:04;;;;;;;43.95;26.02;;;7.60;99.90;;;;;;5009968;28;20879;-81
2022/11/30 12:49:38;;;;;;;46.17;26.20;;;7.60;99.90;;;;;;5016387;28;21167;-80
2022/11/30 12:52:52;;;;;;;33.05;23.52;;;7.60;99.90;;;;;;5020747;28;20057;-81
2022/11/30 12:55:40;;;;;;;29.50;22.83;;;7.60;99.90;;;;;;5017604;28;20184;-83
2022/11/30 12:58:18;;;;;;;34.78;23.88;;;7.50;99.90;;;;;;5021456;28;20076;-82
2022/11/30 13:01:08;;;;;;;34.40;22.20;;;7.60;99.90;;;;;;5018757;28;20061;-82